Time;durP1;ratioP1;P1;durP2;ratioP2;P2;SDS_P1;SDS_P2;PMS_P1;PMS_P2;Temp;Humidity;BMP_temperature;BMP_pressure;BME280_temperature;BME280_humidity;BME280_pressure;Samples;Min_cycle;Max_cycle;Signal;HPM_P1;HPM_P2
2020/12/16 00:00:09;;;;;;;256.17;102.60;;;;;;;-2.46;100.00;99338.53;2105889;28;20722;-79
2020/12/16 00:01:10;;;;;;;250.88;100.55;;;;;;;-2.40;100.00;99353.41;2105482;28;20248;-79
2020/12/16 00:02:11;;;;;;;261.23;100.63;;;;;;;-2.43;100.00;99350.38;2105798;28;20308;-79
2020/12/16 00:03:12;;;;;;;262.20;101.90;;;;;;;-2.43;100.00;99351.22;2105700;28;20282;-79
2020/12/16 00:04:13;;;;;;;279.30;104.13;;;;;;;-2.44;100.00;99352.19;2104505;28;20247;-79
2020/12/16 00:05:14;;;;;;;268.25;105.22;;;;;;;-2.45;100.00;99345.34;2104932;28;20225;-79
2020/12/16 00:06:15;;;;;;;271.23;101.90;;;;;;;-2.45;100.00;99347.16;2104883;28;20236;-79
2020/12/16 00:07:17;;;;;;;273.05;103.43;;;;;;;-2.48;100.00;99348.38;2104857;28;20224;-79
2020/12/16 00:08:19;;;;;;;279.98;108.22;;;;;;;-2.48;100.00;99351.00;2105189;28;20571;-78
2020/12/16 00:09:19;;;;;;;257.63;106.65;;;;;;;-2.49;100.00;99352.00;2105506;28;20224;-79
2020/12/16 00:10:21;;;;;;;263.67;103.87;;;;;;;-2.52;100.00;99355.00;2104845;28;20359;-79
2020/12/16 00:11:21;;;;;;;275.73;104.45;;;;;;;-2.50;100.00;99353.03;2105080;28;20659;-77
2020/12/16 00:12:23;;;;;;;278.63;104.57;;;;;;;-2.52;100.00;99352.41;2104380;28;20673;-78
2020/12/16 00:13:24;;;;;;;267.65;107.13;;;;;;;-2.54;100.00;99346.59;2096634;28;20233;-78
2020/12/16 00:14:25;;;;;;;268.20;104.67;;;;;;;-2.52;100.00;99349.78;2104554;28;20320;-78
2020/12/16 00:15:26;;;;;;;274.83;104.97;;;;;;;-2.51;100.00;99355.84;2106545;28;20259;-78
2020/12/16 00:16:27;;;;;;;274.87;104.90;;;;;;;-2.53;100.00;99342.97;2105583;28;20229;-79
2020/12/16 00:17:28;;;;;;;281.70;110.93;;;;;;;-2.48;100.00;99353.63;2104698;28;20221;-78
2020/12/16 00:18:29;;;;;;;277.23;110.07;;;;;;;-2.46;100.00;99359.44;2105132;28;20248;-79
2020/12/16 00:19:30;;;;;;;273.42;109.40;;;;;;;-2.43;100.00;99353.81;2105493;28;20225;-79
2020/12/16 00:20:31;;;;;;;268.10;108.40;;;;;;;-2.43;100.00;99353.81;2105887;28;20228;-78
2020/12/16 00:21:32;;;;;;;269.40;108.28;;;;;;;-2.48;100.00;99345.78;2104685;28;20707;-78
2020/12/16 00:22:37;;;;;;;282.20;111.43;;;;;;;-2.47;100.00;99352.59;2104868;28;20663;-79
2020/12/16 00:23:39;;;;;;;278.83;110.00;;;;;;;-2.54;100.00;99341.34;2105289;28;20727;-78
2020/12/16 00:24:40;;;;;;;283.10;110.32;;;;;;;-2.51;100.00;99348.00;2113479;28;20555;-79
2020/12/16 00:25:41;;;;;;;271.95;110.10;;;;;;;-2.47;100.00;99355.22;2104523;28;20229;-78
2020/12/16 00:26:42;;;;;;;270.30;108.57;;;;;;;-2.46;100.00;99348.97;2095943;28;20226;-78
2020/12/16 00:27:43;;;;;;;270.20;107.22;;;;;;;-2.46;100.00;99348.97;2104883;28;20300;-79
2020/12/16 00:28:45;;;;;;;262.17;106.90;;;;;;;-2.55;100.00;99339.75;2104271;28;20748;-78
2020/12/16 00:29:45;;;;;;;249.20;104.63;;;;;;;-2.46;100.00;99359.44;2104924;28;20221;-79
2020/12/16 00:30:48;;;;;;;269.93;103.70;;;;;;;-2.53;100.00;99348.19;2104830;28;20304;-78
2020/12/16 00:31:49;;;;;;;262.63;106.20;;;;;;;-2.49;100.00;99357.25;2105050;28;20570;-79
2020/12/16 00:32:50;;;;;;;263.47;107.93;;;;;;;-2.53;100.00;99353.41;2113834;28;20224;-79
2020/12/16 00:33:50;;;;;;;267.35;108.32;;;;;;;-2.48;100.00;99355.44;2113879;28;20577;-78
2020/12/16 00:34:52;;;;;;;264.37;107.53;;;;;;;-2.46;100.00;99359.44;2104747;28;20221;-79
2020/12/16 00:35:52;;;;;;;282.00;110.38;;;;;;;-2.43;100.00;99359.03;2095917;28;20676;-78
2020/12/16 00:36:53;;;;;;;267.63;111.53;;;;;;;-2.46;100.00;99348.97;2095990;28;20560;-78
2020/12/16 00:37:55;;;;;;;278.08;109.35;;;;;;;-2.43;100.00;99355.59;2104742;28;20279;-79
2020/12/16 00:38:57;;;;;;;272.80;111.78;;;;;;;-2.44;100.00;99367.84;2118570;27;20224;-78
2020/12/16 00:39:58;;;;;;;276.13;108.82;;;;;;;-2.54;100.00;99359.66;2112968;28;20231;-78
2020/12/16 00:40:59;;;;;;;244.63;102.67;;;;;;;-2.45;100.00;99360.22;2113174;28;20221;-78
2020/12/16 00:42:00;;;;;;;263.63;105.28;;;;;;;-2.46;100.00;99362.03;2122175;27;20221;-78
2020/12/16 00:43:01;;;;;;;256.90;100.80;;;;;;;-2.47;100.00;99365.66;2112861;28;20228;-79
2020/12/16 00:44:03;;;;;;;271.75;103.80;;;;;;;-2.46;100.00;99364.66;2113129;27;20286;-79
2020/12/16 00:45:05;;;;;;;248.85;99.18;;;;;;;-2.46;100.00;99364.66;2112243;28;20229;-78
2020/12/16 00:46:06;;;;;;;253.35;103.20;;;;;;;-2.49;100.00;99366.88;2104816;28;20217;-79
2020/12/16 00:47:07;;;;;;;268.10;102.57;;;;;;;-2.51;100.00;99372.31;2112800;28;20231;-78
2020/12/16 00:48:08;;;;;;;251.07;102.32;;;;;;;-2.54;100.00;99366.69;2113006;28;20228;-78
2020/12/16 00:49:09;;;;;;;243.77;102.03;;;;;;;-2.56;100.00;99362.47;2113053;28;20216;-79
2020/12/16 00:50:11;;;;;;;254.23;103.00;;;;;;;-2.59;100.00;99354.25;2104230;28;20225;-79
2020/12/16 00:51:13;;;;;;;258.08;104.20;;;;;;;-2.60;100.00;99352.66;2104496;28;20245;-78
2020/12/16 00:52:14;;;;;;;246.00;103.05;;;;;;;-2.64;100.00;99346.19;2104860;28;20237;-79
2020/12/16 00:53:15;;;;;;;260.47;104.93;;;;;;;-2.61;100.00;99343.19;2104674;28;20213;-78
2020/12/16 00:54:24;;;;;;;241.80;103.07;;;;;;;-2.57;100.00;99352.22;2105176;28;20225;-79
2020/12/16 00:55:26;;;;;;;244.35;100.20;;;;;;;-2.57;100.00;99355.63;2104310;28;20759;-78
2020/12/16 00:56:26;;;;;;;238.00;95.93;;;;;;;-2.58;100.00;99358.47;2112968;28;20237;-79
2020/12/16 00:57:28;;;;;;;253.50;104.05;;;;;;;-2.67;100.00;99352.66;2112969;28;20227;-79
2020/12/16 00:58:29;;;;;;;245.65;101.68;;;;;;;-2.61;100.00;99361.47;2104590;28;20213;-79
2020/12/16 00:59:30;;;;;;;262.10;106.90;;;;;;;-2.63;100.00;99359.06;2113231;28;20241;-79
2020/12/16 01:00:31;;;;;;;264.25;106.78;;;;;;;-2.61;100.00;99354.44;2113087;28;20270;-79
2020/12/16 01:01:38;;;;;;;266.75;108.95;;;;;;;-2.63;100.00;99355.63;2112538;28;20224;-78
2020/12/16 01:02:40;;;;;;;263.70;103.22;;;;;;;-2.58;100.00;99369.72;2113042;28;20220;-78
2020/12/16 01:03:41;;;;;;;231.52;96.45;;;;;;;-2.68;100.00;99364.09;2112831;28;20233;-79
2020/12/16 01:04:42;;;;;;;256.83;104.78;;;;;;;-2.67;100.00;99364.91;2112911;28;20224;-79
2020/12/16 01:05:43;;;;;;;272.97;109.03;;;;;;;-2.63;100.00;99366.09;2112862;28;20321;-79
2020/12/16 01:06:44;;;;;;;275.55;110.63;;;;;;;-2.61;100.00;99369.28;2113146;28;20225;-79
2020/12/16 01:07:49;;;;;;;285.83;112.30;;;;;;;-2.62;100.00;99365.88;2112986;28;20697;-79
2020/12/16 01:08:49;;;;;;;268.77;107.65;;;;;;;-2.61;100.00;99358.84;2104370;28;20304;-79
2020/12/16 01:09:51;;;;;;;273.20;108.27;;;;;;;-2.65;100.00;99361.06;2104527;28;20225;-79
2020/12/16 01:10:52;;;;;;;267.05;110.20;;;;;;;-2.63;100.00;99358.25;2097791;28;20254;-78
2020/12/16 01:11:54;;;;;;;274.57;107.27;;;;;;;-2.66;100.00;99351.63;2104289;28;20221;-78
2020/12/16 01:12:55;;;;;;;271.98;104.88;;;;;;;-2.57;100.00;99360.06;2104240;28;20278;-78
2020/12/16 01:14:00;;;;;;;265.52;106.15;;;;;;;-2.56;100.00;99359.84;2104964;28;20229;-79
2020/12/16 01:15:01;;;;;;;251.70;103.40;;;;;;;-2.56;100.00;99364.28;2105178;28;20252;-79
2020/12/16 01:16:03;;;;;;;255.32;101.93;;;;;;;-2.57;100.00;99357.44;2104393;28;20334;-79
2020/12/16 01:17:04;;;;;;;249.18;104.97;;;;;;;-2.67;100.00;99338.78;2101980;28;20225;-79
2020/12/16 01:18:09;;;;;;;242.32;97.03;;;;;;;-2.57;100.00;99353.03;2104357;28;20222;-79
2020/12/16 01:19:12;;;;;;;239.77;97.35;;;;;;;-2.59;100.00;99360.28;2113343;27;20644;-79
2020/12/16 01:20:18;;;;;;;252.15;102.22;;;;;;;-2.63;100.00;99353.03;2112676;28;20217;-79
2020/12/16 01:21:19;;;;;;;245.00;99.07;;;;;;;-2.63;100.00;99364.28;2104529;28;20301;-79
2020/12/16 01:22:22;;;;;;;269.45;108.63;;;;;;;-2.64;100.00;99361.88;2104258;28;20679;-78
2020/12/16 01:23:25;;;;;;;255.30;101.22;;;;;;;-2.67;100.00;99357.06;2112709;28;20221;-79
2020/12/16 01:24:26;;;;;;;245.88;99.47;;;;;;;-2.64;100.00;99370.50;2112457;28;20299;-80
2020/12/16 01:25:30;;;;;;;242.30;96.95;;;;;;;-2.63;100.00;99366.09;2104575;28;20233;-79
2020/12/16 01:26:38;;;;;;;262.55;102.38;;;;;;;-2.65;100.00;99365.50;2105169;28;20251;-79
2020/12/16 01:27:39;;;;;;;228.18;97.75;;;;;;;-2.65;100.00;99366.28;2104222;28;20229;-79
2020/12/16 01:28:40;;;;;;;240.77;96.73;;;;;;;-2.65;100.00;99371.53;2112891;28;20309;-79
2020/12/16 01:29:44;;;;;;;257.95;99.82;;;;;;;-2.67;100.00;99365.69;2112868;28;20224;-79
2020/12/16 01:30:45;;;;;;;249.10;100.87;;;;;;;-2.67;100.00;99368.31;2104367;28;20225;-79
2020/12/16 01:31:48;;;;;;;255.98;106.93;;;;;;;-2.63;100.00;99363.47;2104536;28;20346;-79
2020/12/16 01:33:00;;;;;;;261.33;107.13;;;;;;;-2.67;100.00;99357.06;2105543;28;20695;-79
2020/12/16 01:34:01;;;;;;;269.98;106.40;;;;;;;-2.60;100.00;99363.88;2104596;28;20296;-80
2020/12/16 01:35:13;;;;;;;271.15;106.97;;;;;;;-2.64;100.00;99352.22;2105362;28;20278;-79
2020/12/16 01:36:15;;;;;;;236.30;101.00;;;;;;;-2.56;100.00;99364.28;2104617;28;20642;-79
2020/12/16 01:37:18;;;;;;;248.07;100.32;;;;;;;-2.65;100.00;99349.81;2104658;28;20300;-80
2020/12/16 01:38:24;;;;;;;249.48;100.47;;;;;;;-2.56;100.00;99365.06;2104770;28;20668;-79
2020/12/16 01:39:28;;;;;;;248.80;99.22;;;;;;;-2.57;100.00;99366.09;2104801;28;20225;-79
2020/12/16 01:40:29;;;;;;;250.80;102.72;;;;;;;-2.61;100.00;99356.22;2112603;28;20220;-79
2020/12/16 01:41:31;;;;;;;236.30;98.80;;;;;;;-2.57;100.00;99368.69;2112631;28;20248;-79
2020/12/16 01:42:32;;;;;;;243.40;99.60;;;;;;;-2.57;100.00;99373.13;2113257;28;20784;-79
2020/12/16 01:43:35;;;;;;;239.60;98.57;;;;;;;-2.54;100.00;99375.31;2121946;28;20574;-79
2020/12/16 01:44:36;;;;;;;243.13;97.55;;;;;;;-2.54;100.00;99367.47;2112328;28;20223;-79
2020/12/16 01:45:40;;;;;;;224.88;94.78;;;;;;;-2.56;100.00;99369.50;2104288;28;20249;-79
2020/12/16 01:46:49;;;;;;;216.63;93.63;;;;;;;-2.56;100.00;99374.72;2102114;28;20230;-79
2020/12/16 01:47:51;;;;;;;248.07;100.93;;;;;;;-2.64;100.00;99369.72;2104242;28;20233;-79
2020/12/16 01:48:54;;;;;;;266.40;108.45;;;;;;;-2.67;100.00;99377.97;2097376;28;20217;-79
2020/12/16 01:49:55;;;;;;;256.80;102.47;;;;;;;-2.61;100.00;99379.75;2106470;28;20313;-79
2020/12/16 01:50:57;;;;;;;262.90;105.47;;;;;;;-2.59;100.00;99377.75;2106219;28;20345;-79
2020/12/16 01:51:59;;;;;;;252.43;103.30;;;;;;;-2.60;100.00;99379.56;2104435;28;20251;-79
2020/12/16 01:53:01;;;;;;;241.68;99.80;;;;;;;-2.60;100.00;99376.16;2104494;28;20260;-79
2020/12/16 01:54:15;;;;;;;256.80;101.05;;;;;;;-2.58;100.00;99377.53;2105570;28;20217;-79
2020/12/16 01:55:17;;;;;;;239.55;99.55;;;;;;;-2.62;100.00;99370.31;2112688;28;20587;-79
2020/12/16 01:56:31;;;;;;;215.90;95.28;;;;;;;-2.56;100.00;99375.53;2112162;28;20220;-79
2020/12/16 01:57:45;;;;;;;232.45;95.15;;;;;;;-2.55;100.00;99376.31;2105709;28;20283;-79
2020/12/16 01:58:53;;;;;;;231.80;94.85;;;;;;;-2.60;100.00;99379.56;2112272;28;20572;-79
2020/12/16 01:59:55;;;;;;;238.98;97.22;;;;;;;-2.61;100.00;99377.13;2104385;28;20260;-79
2020/12/16 02:01:18;;;;;;;226.00;95.25;;;;;;;-2.58;100.00;99388.00;2115578;27;20213;-79
2020/12/16 02:02:20;;;;;;;246.50;99.32;;;;;;;-2.62;100.00;99373.72;2121747;27;20227;-79
2020/12/16 02:03:23;;;;;;;225.15;94.18;;;;;;;-2.64;100.00;99377.53;2112389;28;20224;-78
2020/12/16 02:04:42;;;;;;;242.65;98.80;;;;;;;-2.54;100.00;99391.00;2097619;28;20614;-79
2020/12/16 02:05:46;;;;;;;251.13;98.72;;;;;;;-2.58;100.00;99387.19;2096252;28;20594;-80
2020/12/16 02:06:51;;;;;;;221.63;96.45;;;;;;;-2.54;100.00;99387.56;2104201;28;20263;-79
2020/12/16 02:07:55;;;;;;;248.27;98.68;;;;;;;-2.59;100.00;99383.78;2095296;28;20711;-78
2020/12/16 02:09:03;;;;;;;223.95;93.47;;;;;;;-2.56;100.00;99385.16;2104264;28;20221;-79
2020/12/16 02:10:05;;;;;;;234.75;98.00;;;;;;;-2.51;100.00;99393.22;2102803;28;20237;-79
2020/12/16 02:11:07;;;;;;;241.30;100.45;;;;;;;-2.54;100.00;99391.00;2104185;28;20278;-79
2020/12/16 02:12:15;;;;;;;231.02;97.72;;;;;;;-2.52;100.00;99396.81;2112135;28;20227;-79
2020/12/16 02:13:16;;;;;;;235.82;101.53;;;;;;;-2.54;100.00;99388.38;2112734;28;20606;-79
2020/12/16 02:14:22;;;;;;;233.73;95.85;;;;;;;-2.41;100.00;99401.44;2112178;28;20248;-78
2020/12/16 02:15:27;;;;;;;225.75;96.20;;;;;;;-2.42;100.00;99407.66;2112621;28;20307;-79
2020/12/16 02:16:29;;;;;;;247.03;101.70;;;;;;;-2.38;100.00;99403.63;2112734;28;20213;-79
2020/12/16 02:17:31;;;;;;;256.52;103.90;;;;;;;-2.46;100.00;99389.97;2104538;28;20233;-79
2020/12/16 02:18:32;;;;;;;249.75;100.10;;;;;;;-2.32;100.00;99399.41;2104407;28;20217;-79
2020/12/16 02:19:41;;;;;;;240.32;99.47;;;;;;;-2.33;100.00;99396.00;2104449;28;20221;-79
2020/12/16 02:20:46;;;;;;;244.02;98.10;;;;;;;-2.31;100.00;99395.78;2104954;28;20225;-79
2020/12/16 02:21:47;;;;;;;240.80;102.50;;;;;;;-2.29;100.00;99394.56;2104294;28;20227;-79
2020/12/16 02:22:49;;;;;;;237.75;99.88;;;;;;;-2.28;100.00;99404.00;2103691;28;20221;-78
2020/12/16 02:23:51;;;;;;;238.27;102.45;;;;;;;-2.22;100.00;99404.22;2104066;28;20307;-78
2020/12/16 02:24:59;;;;;;;240.00;99.65;;;;;;;-2.19;100.00;99404.59;2112205;28;20231;-78
2020/12/16 02:26:01;;;;;;;232.85;99.55;;;;;;;-2.19;100.00;99401.97;2112395;28;20300;-78
2020/12/16 02:27:02;;;;;;;234.13;97.55;;;;;;;-2.22;100.00;99397.19;2103755;28;20229;-78
2020/12/16 02:28:03;;;;;;;239.65;102.35;;;;;;;-2.15;100.00;99402.41;2112444;28;20304;-78
2020/12/16 02:29:08;;;;;;;241.80;99.82;;;;;;;-2.11;100.00;99398.34;2103812;28;20742;-78
2020/12/16 02:30:12;;;;;;;250.32;101.05;;;;;;;-2.06;100.00;99409.00;2104015;28;20582;-78
2020/12/16 02:31:40;;;;;;;226.18;94.95;;;;;;;-2.10;100.00;99405.19;2115836;28;20227;-78
2020/12/16 02:32:44;;;;;;;236.38;97.47;;;;;;;-2.10;100.00;99400.75;2114072;28;20273;-78
2020/12/16 02:33:45;;;;;;;234.93;98.78;;;;;;;-2.11;100.00;99401.75;2114063;28;20224;-77
2020/12/16 02:34:56;;;;;;;246.73;99.30;;;;;;;-2.10;100.00;99405.19;2113588;28;20714;-77
2020/12/16 02:35:56;;;;;;;231.13;99.72;;;;;;;-2.10;100.00;99405.19;2114061;28;20251;-77
2020/12/16 02:37:08;;;;;;;229.48;96.70;;;;;;;-2.11;100.00;99400.97;2106684;28;20282;-77
2020/12/16 02:38:17;;;;;;;225.85;95.07;;;;;;;-2.10;100.00;99395.53;2113956;28;20287;-77
2020/12/16 02:39:18;;;;;;;223.87;96.97;;;;;;;-2.10;100.00;99389.50;2105536;28;20217;-77
2020/12/16 02:40:43;;;;;;;231.07;96.15;;;;;;;-2.11;100.00;99398.34;2095905;27;20238;-77
2020/12/16 02:41:46;;;;;;;222.63;92.38;;;;;;;-2.13;100.00;99392.53;2113550;28;20221;-77
2020/12/16 02:42:48;;;;;;;223.10;93.28;;;;;;;-2.12;100.00;99391.53;2105695;28;20687;-77
2020/12/16 02:43:51;;;;;;;222.48;93.70;;;;;;;-2.11;100.00;99391.31;2101460;28;20279;-77
2020/12/16 02:44:53;;;;;;;206.07;93.97;;;;;;;-2.12;100.00;99394.13;2105252;28;20248;-77
2020/12/16 02:46:14;;;;;;;224.80;98.50;;;;;;;-2.18;100.00;99393.13;2107870;28;20220;-77
2020/12/16 02:47:15;;;;;;;240.55;97.72;;;;;;;-2.21;100.00;99379.69;2113936;28;20686;-77
2020/12/16 02:48:18;;;;;;;233.55;98.13;;;;;;;-2.12;100.00;99388.91;2113893;28;20589;-77
2020/12/16 02:49:20;;;;;;;233.93;98.30;;;;;;;-2.11;100.00;99388.69;2105594;28;20269;-77
2020/12/16 02:50:21;;;;;;;240.40;99.40;;;;;;;-2.13;100.00;99388.09;2113485;28;20220;-77
2020/12/16 02:51:23;;;;;;;238.68;100.45;;;;;;;-2.23;100.00;99376.47;2113635;27;20698;-77
2020/12/16 02:52:24;;;;;;;211.00;94.97;;;;;;;-2.14;100.00;99399.56;2113867;28;20614;-77
2020/12/16 02:53:26;;;;;;;216.02;95.70;;;;;;;-2.16;100.00;99398.97;2105586;28;20682;-77
2020/12/16 02:54:46;;;;;;;217.95;93.72;;;;;;;-2.19;100.00;99403.78;2116244;27;20216;-77
2020/12/16 02:55:55;;;;;;;232.02;97.68;;;;;;;-2.15;100.00;99403.19;2113436;28;20221;-77
2020/12/16 02:56:57;;;;;;;219.00;91.32;;;;;;;-2.17;100.00;99401.78;2114001;28;20278;-77
2020/12/16 02:57:59;;;;;;;225.65;94.47;;;;;;;-2.19;100.00;99409.03;2113757;28;20248;-77
2020/12/16 02:59:00;;;;;;;226.23;94.03;;;;;;;-2.18;100.00;99408.00;2105144;28;20278;-77
2020/12/16 03:00:04;;;;;;;216.55;92.38;;;;;;;-2.18;100.00;99403.59;2105895;28;20236;-77
2020/12/16 03:01:24;;;;;;;212.52;92.90;;;;;;;-2.19;100.00;99406.41;2115954;27;20244;-77
2020/12/16 03:02:51;;;;;;;224.70;94.63;;;;;;;-2.23;100.00;99405.22;2113580;28;20731;-77
2020/12/16 03:04:07;;;;;;;210.88;93.13;;;;;;;-2.30;100.00;99394.78;2106738;28;20235;-77
2020/12/16 03:05:14;;;;;;;240.30;97.38;;;;;;;-2.23;100.00;99408.63;2106159;28;20214;-77
2020/12/16 03:06:15;;;;;;;235.38;100.80;;;;;;;-2.28;100.00;99403.22;2113572;28;20703;-77
2020/12/16 03:07:28;;;;;;;235.07;99.50;;;;;;;-2.28;100.00;99406.63;2106451;28;20234;-77
2020/12/16 03:08:30;;;;;;;231.80;96.50;;;;;;;-2.29;100.00;99412.84;2105448;28;20680;-77
2020/12/16 03:09:36;;;;;;;218.95;95.55;;;;;;;-2.35;100.00;99403.22;2113780;28;20217;-77
2020/12/16 03:10:37;;;;;;;228.88;97.05;;;;;;;-2.34;100.00;99406.66;2113454;28;20619;-77
2020/12/16 03:11:40;;;;;;;231.80;99.38;;;;;;;-2.42;100.00;99402.44;2105249;28;20771;-77
2020/12/16 03:12:42;;;;;;;217.38;94.53;;;;;;;-2.35;100.00;99412.88;2105667;28;20233;-78
2020/12/16 03:13:43;;;;;;;229.67;96.30;;;;;;;-2.40;100.00;99399.63;2105375;28;20225;-77
2020/12/16 03:14:44;;;;;;;225.27;97.22;;;;;;;-2.33;100.00;99419.50;2113697;28;20300;-77
2020/12/16 03:15:45;;;;;;;225.23;94.70;;;;;;;-2.32;100.00;99407.25;2113692;28;20217;-77
2020/12/16 03:16:46;;;;;;;239.55;97.50;;;;;;;-2.33;100.00;99414.28;2105511;28;21079;-77
2020/12/16 03:17:56;;;;;;;243.10;98.55;;;;;;;-2.38;100.00;99408.84;2106162;28;20308;-77
2020/12/16 03:18:57;;;;;;;230.15;97.75;;;;;;;-2.27;100.00;99416.06;2113732;28;20345;-77
2020/12/16 03:19:58;;;;;;;228.03;97.23;;;;;;;-2.29;100.00;99412.84;2105368;28;20221;-77
2020/12/16 03:20:59;;;;;;;234.18;96.70;;;;;;;-2.28;100.00;99416.28;2105181;28;20482;-77
2020/12/16 03:22:01;;;;;;;239.25;99.53;;;;;;;-2.33;100.00;99416.91;2105180;28;20620;-77
2020/12/16 03:23:28;;;;;;;237.85;96.68;;;;;;;-2.33;100.00;99411.69;2112828;27;20216;-77
2020/12/16 03:24:48;;;;;;;235.63;98.70;;;;;;;-2.33;100.00;99410.88;2122568;27;20224;-77
2020/12/16 03:26:21;;;;;;;234.65;98.22;;;;;;;-2.32;100.00;99418.50;2079692;28;20685;-77
2020/12/16 03:27:59;;;;;;;238.15;97.63;;;;;;;-2.33;100.00;99411.69;2104041;28;20229;-77
2020/12/16 03:29:23;;;;;;;228.07;97.10;;;;;;;-2.31;100.00;99407.03;2103803;28;20279;-77
2020/12/16 03:30:48;;;;;;;219.85;95.38;;;;;;;-2.34;100.00;99414.50;2112250;28;20235;-77
2020/12/16 03:32:09;;;;;;;236.85;99.65;;;;;;;-2.33;100.00;99410.88;2107308;28;20232;-77
2020/12/16 03:33:26;;;;;;;238.85;98.75;;;;;;;-2.27;100.00;99413.44;2107079;28;20229;-77
2020/12/16 03:34:46;;;;;;;229.07;100.07;;;;;;;-2.29;100.00;99415.47;2115900;27;20216;-77
2020/12/16 03:35:52;;;;;;;228.13;99.63;;;;;;;-2.28;100.00;99417.06;2112987;28;20224;-77
2020/12/16 03:36:54;;;;;;;236.63;99.47;;;;;;;-2.34;100.00;99412.69;2105002;28;20217;-77
2020/12/16 03:37:55;;;;;;;227.82;101.90;;;;;;;-2.26;100.00;99411.63;2105111;28;20229;-77
2020/12/16 03:39:00;;;;;;;240.48;99.10;;;;;;;-2.25;100.00;99415.09;2105444;28;20258;-77
2020/12/16 03:40:02;;;;;;;231.15;99.47;;;;;;;-2.24;100.00;99416.69;2113684;28;20228;-77
2020/12/16 03:41:11;;;;;;;231.13;98.10;;;;;;;-2.19;100.00;99424.69;2113131;28;20265;-77
2020/12/16 03:42:17;;;;;;;225.82;99.72;;;;;;;-2.26;100.00;99411.63;2105951;28;20355;-77
2020/12/16 03:43:20;;;;;;;230.00;100.88;;;;;;;-2.22;100.00;99422.50;2105161;28;20719;-77
2020/12/16 03:44:20;;;;;;;233.75;99.85;;;;;;;-2.24;100.00;99429.75;2104938;28;20277;-77
2020/12/16 03:45:27;;;;;;;238.10;101.47;;;;;;;-2.23;100.00;99424.31;2112845;28;20220;-77
2020/12/16 03:46:29;;;;;;;239.27;98.90;;;;;;;-2.23;100.00;99421.72;2105199;28;20683;-77
2020/12/16 03:47:30;;;;;;;228.15;100.97;;;;;;;-2.27;100.00;99421.28;2105040;28;20221;-77
2020/12/16 03:48:31;;;;;;;231.70;102.03;;;;;;;-2.33;100.00;99406.44;2113555;28;20699;-77
2020/12/16 03:49:32;;;;;;;231.55;102.80;;;;;;;-2.18;100.00;99421.88;2113446;28;20334;-77
2020/12/16 03:50:34;;;;;;;219.45;99.97;;;;;;;-2.20;100.00;99413.44;2113514;28;20699;-77
2020/12/16 03:51:34;;;;;;;232.40;100.43;;;;;;;-2.16;100.00;99416.47;2113504;28;20761;-77
2020/12/16 03:52:39;;;;;;;220.32;97.65;;;;;;;-2.14;100.00;99404.81;2104966;28;20231;-77
2020/12/16 03:54:01;;;;;;;210.80;95.88;;;;;;;-2.17;100.00;99400.00;2112976;28;20670;-77
2020/12/16 03:55:18;;;;;;;229.73;97.90;;;;;;;-2.17;100.00;99414.84;2107131;28;20275;-77
2020/12/16 03:56:26;;;;;;;225.32;100.60;;;;;;;-2.13;100.00;99416.06;2105411;28;20292;-77
2020/12/16 03:57:46;;;;;;;217.18;98.07;;;;;;;-2.16;100.00;99419.09;2108109;28;20257;-77
2020/12/16 03:59:10;;;;;;;234.80;99.25;;;;;;;-2.09;100.00;99428.50;2112970;28;20225;-78
2020/12/16 04:00:20;;;;;;;212.20;95.40;;;;;;;-2.14;100.00;99411.84;2106016;28;20703;-77
2020/12/16 04:01:27;;;;;;;222.13;94.40;;;;;;;-2.19;100.00;99403.78;2098032;28;20230;-77
2020/12/16 04:02:28;;;;;;;243.45;101.95;;;;;;;-2.10;100.00;99420.88;2105839;28;20296;-78
2020/12/16 04:03:52;;;;;;;228.45;100.03;;;;;;;-2.10;100.00;99415.63;2107829;28;20217;-77
2020/12/16 04:04:59;;;;;;;241.57;98.40;;;;;;;-2.05;100.00;99408.00;2114518;28;20221;-77
2020/12/16 04:06:00;;;;;;;235.10;100.67;;;;;;;-2.05;100.00;99413.22;2105440;28;20724;-77
2020/12/16 04:07:02;;;;;;;224.70;100.43;;;;;;;-2.10;100.00;99403.38;2105424;28;20296;-77
2020/12/16 04:08:09;;;;;;;227.63;100.05;;;;;;;-2.14;100.00;99402.19;2105162;28;20286;-77
2020/12/16 04:09:28;;;;;;;218.02;95.93;;;;;;;-2.03;100.00;99417.22;2115577;27;20212;-77
2020/12/16 04:10:33;;;;;;;228.98;97.82;;;;;;;-1.99;100.00;99420.25;2113118;28;20217;-77
2020/12/16 04:11:34;;;;;;;226.10;100.43;;;;;;;-1.99;100.00;99420.25;2113428;28;20248;-77
2020/12/16 04:12:46;;;;;;;218.48;98.40;;;;;;;-2.01;100.00;99423.03;2113029;28;20220;-77
2020/12/16 04:13:47;;;;;;;225.90;98.80;;;;;;;-2.00;100.00;99422.06;2104706;28;20309;-77
2020/12/16 04:14:49;;;;;;;227.13;101.32;;;;;;;-1.98;100.00;99427.09;2113402;28;20542;-77
2020/12/16 04:15:53;;;;;;;243.77;102.93;;;;;;;-1.98;100.00;99418.44;2112845;28;20225;-77
2020/12/16 04:16:56;;;;;;;234.32;100.80;;;;;;;-1.98;100.00;99427.09;2104612;28;20230;-77
2020/12/16 04:17:57;;;;;;;246.95;104.43;;;;;;;-1.98;100.00;99432.31;2105269;28;20229;-77
2020/12/16 04:18:58;;;;;;;241.20;105.88;;;;;;;-1.96;100.00;99429.50;2113082;28;20277;-77
2020/12/16 04:20:00;;;;;;;231.60;102.73;;;;;;;-1.93;100.00;99426.44;2113058;28;20225;-77
2020/12/16 04:21:01;;;;;;;258.77;106.53;;;;;;;-1.95;100.00;99418.81;2104802;28;20225;-77
2020/12/16 04:22:02;;;;;;;236.27;102.10;;;;;;;-1.94;100.00;99417.00;2104379;28;20229;-77
2020/12/16 04:23:09;;;;;;;236.30;102.82;;;;;;;-1.88;100.00;99424.84;2105223;28;20484;-77
2020/12/16 04:24:12;;;;;;;237.13;105.25;;;;;;;-1.93;100.00;99421.22;2104644;28;22558;-77
2020/12/16 04:25:22;;;;;;;235.57;103.78;;;;;;;-2.04;100.00;99404.38;2105731;28;20583;-77
2020/12/16 04:26:24;;;;;;;233.53;103.63;;;;;;;-1.87;100.00;99433.47;2104622;28;20290;-77
2020/12/16 04:27:25;;;;;;;229.63;102.72;;;;;;;-1.88;100.00;99426.66;2112794;28;20225;-77
2020/12/16 04:28:27;;;;;;;232.33;102.20;;;;;;;-1.91;100.00;99425.25;2104696;28;20241;-77
2020/12/16 04:29:28;;;;;;;241.63;102.63;;;;;;;-1.92;100.00;99418.41;2112903;28;20644;-77
2020/12/16 04:30:31;;;;;;;231.43;102.90;;;;;;;-1.84;100.00;99427.84;2104756;28;20232;-77
2020/12/16 04:31:33;;;;;;;247.55;104.15;;;;;;;-1.82;100.00;99429.25;2104957;28;20275;-77
2020/12/16 04:32:36;;;;;;;227.85;101.90;;;;;;;-1.83;100.00;99432.84;2113036;28;20216;-78
2020/12/16 04:33:37;;;;;;;221.75;101.03;;;;;;;-1.85;100.00;99429.66;2104184;28;20278;-77
2020/12/16 04:34:38;;;;;;;246.95;108.18;;;;;;;-1.85;100.00;99432.25;2113059;28;20762;-77
2020/12/16 04:35:39;;;;;;;244.93;106.47;;;;;;;-1.84;100.00;99436.47;2104671;28;20642;-78
2020/12/16 04:36:41;;;;;;;250.55;106.88;;;;;;;-1.84;100.00;99433.88;2104596;28;20666;-78
2020/12/16 04:37:46;;;;;;;246.45;105.63;;;;;;;-1.90;100.00;99423.44;2104719;28;20236;-77
2020/12/16 04:38:47;;;;;;;248.38;108.22;;;;;;;-1.83;100.00;99437.28;2113089;28;20591;-77
2020/12/16 04:39:48;;;;;;;238.25;106.07;;;;;;;-1.84;100.00;99436.47;2104600;28;20217;-77
2020/12/16 04:40:52;;;;;;;235.75;103.65;;;;;;;-1.84;100.00;99426.03;2104935;28;20221;-77
2020/12/16 04:41:53;;;;;;;236.43;103.95;;;;;;;-1.83;100.00;99429.44;2104185;28;20229;-77
2020/12/16 04:43:03;;;;;;;242.02;108.05;;;;;;;-1.80;100.00;99431.66;2113066;28;20224;-77
2020/12/16 04:44:06;;;;;;;252.48;107.07;;;;;;;-1.89;100.00;99423.22;2112967;28;20217;-77
2020/12/16 04:45:12;;;;;;;233.50;104.43;;;;;;;-1.93;100.00;99411.56;2102212;28;20226;-78
2020/12/16 04:46:17;;;;;;;251.73;107.15;;;;;;;-1.86;100.00;99430.66;2106547;28;20361;-77
2020/12/16 04:47:19;;;;;;;227.88;105.43;;;;;;;-1.83;100.00;99432.84;2096330;28;20225;-77
2020/12/16 04:48:26;;;;;;;231.40;103.10;;;;;;;-1.81;100.00;99430.84;2105147;28;20687;-77